createdAt,value
2019-05-11T00:00:27.602Z,12.03
2019-05-11T00:02:58.443Z,11.50
2019-05-11T00:05:27.043Z,11.30
2019-05-11T00:07:57.250Z,14.17
2019-05-11T00:10:25.747Z,14.13
2019-05-11T00:12:54.315Z,8.40
2019-05-11T00:15:22.843Z,7.33
2019-05-11T00:17:51.326Z,11.27
2019-05-11T00:20:20.576Z,7.90
2019-05-11T00:22:49.061Z,9.83
2019-05-11T00:25:17.604Z,7.83
2019-05-11T00:27:46.124Z,10.37
2019-05-11T00:30:14.694Z,21.47
2019-05-11T00:32:43.187Z,13.87
2019-05-11T00:35:11.758Z,20.50
2019-05-11T00:37:40.278Z,9.20
2019-05-11T00:40:14.533Z,8.13
2019-05-11T00:42:39.241Z,11.47
2019-05-11T00:45:07.874Z,12.47
2019-05-11T00:47:36.434Z,8.57
2019-05-11T00:50:07.417Z,13.73
2019-05-11T00:52:35.951Z,13.30
2019-05-11T00:55:06.088Z,12.90
2019-05-11T00:57:34.634Z,26.27
2019-05-11T01:00:03.231Z,10.10
2019-05-11T01:02:31.921Z,12.83
2019-05-11T01:05:01.658Z,18.37
2019-05-11T01:07:30.197Z,8.43
2019-05-11T01:09:58.953Z,12.00
2019-05-11T01:12:28.101Z,13.40
2019-05-11T01:14:56.735Z,10.87
2019-05-11T01:17:25.273Z,14.63
2019-05-11T01:19:53.855Z,14.23
2019-05-11T01:22:22.365Z,10.80
2019-05-11T01:24:50.899Z,12.37
2019-05-11T01:27:19.439Z,11.70
2019-05-11T01:29:47.928Z,12.60
2019-05-11T01:32:16.495Z,9.47
2019-05-11T01:34:45.090Z,11.60
2019-05-11T01:37:13.592Z,15.23
2019-05-11T01:39:42.172Z,11.77
2019-05-11T01:42:10.729Z,10.87
2019-05-11T01:44:39.502Z,17.33
2019-05-11T01:47:08.442Z,14.80
2019-05-11T01:49:37.030Z,16.13
2019-05-11T01:52:05.517Z,17.33
2019-05-11T01:54:34.017Z,15.83
2019-05-11T01:57:02.653Z,13.17
2019-05-11T01:59:31.192Z,11.50
2019-05-11T02:01:59.688Z,10.23
2019-05-11T02:04:28.262Z,13.90
2019-05-11T02:06:57.007Z,10.80
2019-05-11T02:09:25.516Z,17.67
2019-05-11T02:11:54.038Z,11.13
2019-05-11T02:14:22.530Z,14.97
2019-05-11T02:16:51.036Z,21.60
2019-05-11T02:19:19.612Z,13.13
2019-05-11T02:21:48.111Z,9.80
2019-05-11T02:24:16.966Z,15.93
2019-05-11T02:26:45.524Z,12.70
2019-05-11T02:29:14.028Z,14.27
2019-05-11T02:31:42.530Z,10.00
2019-05-11T02:34:11.064Z,8.63
2019-05-11T02:36:39.572Z,10.33
2019-05-11T02:39:08.156Z,12.30
2019-05-11T02:41:37.646Z,13.50
2019-05-11T02:44:06.585Z,11.20
2019-05-11T02:46:35.650Z,10.83
2019-05-11T02:49:04.182Z,10.13
2019-05-11T02:51:33.206Z,13.37
2019-05-11T02:54:03.103Z,12.77
2019-05-11T02:56:31.628Z,11.53
2019-05-11T02:59:00.129Z,11.60
2019-05-11T03:01:28.655Z,9.43
2019-05-11T03:03:57.194Z,16.03
2019-05-11T03:06:25.684Z,16.93
2019-05-11T03:08:54.349Z,9.97
2019-05-11T03:11:22.932Z,14.33
2019-05-11T03:13:51.431Z,10.27
2019-05-11T03:16:21.571Z,8.27
2019-05-11T03:18:50.082Z,13.23
2019-05-11T03:21:18.650Z,13.43
2019-05-11T03:23:47.163Z,9.67
2019-05-11T03:26:15.737Z,17.50
2019-05-11T03:28:44.232Z,10.53
2019-05-11T03:31:12.737Z,13.90
2019-05-11T03:33:41.340Z,12.20
2019-05-11T03:36:09.823Z,9.43
2019-05-11T03:38:38.318Z,13.47
2019-05-11T03:41:06.862Z,17.33
2019-05-11T03:43:35.657Z,21.80
2019-05-11T03:46:04.581Z,13.30
2019-05-11T03:48:33.355Z,16.40
2019-05-11T03:51:01.872Z,16.33
2019-05-11T03:53:30.586Z,28.40
2019-05-11T03:55:59.815Z,54.17
2019-05-11T03:58:28.718Z,120.13
2019-05-11T04:00:57.170Z,61.60
2019-05-11T04:03:25.709Z,63.40
2019-05-11T04:05:54.238Z,67.43
2019-05-11T04:08:22.768Z,177.87
2019-05-11T04:10:52.369Z,188.57
2019-05-11T04:13:20.878Z,121.30
2019-05-11T04:15:49.370Z,83.73
2019-05-11T04:18:17.955Z,148.67
2019-05-11T04:20:46.459Z,97.07
2019-05-11T04:23:14.958Z,65.47
2019-05-11T04:25:44.387Z,58.57
2019-05-11T04:28:12.869Z,51.00
2019-05-11T04:30:42.911Z,65.80
2019-05-11T04:33:11.455Z,28.63
2019-05-11T04:35:39.956Z,61.60
2019-05-11T04:38:08.480Z,34.67
2019-05-11T04:40:37.023Z,32.57
2019-05-11T04:43:05.516Z,28.77
2019-05-11T04:45:35.037Z,24.37
2019-05-11T04:48:03.688Z,23.30
2019-05-11T04:50:33.569Z,25.00
2019-05-11T04:53:03.057Z,22.20
2019-05-11T04:55:31.733Z,16.50
2019-05-11T04:58:00.656Z,11.70
2019-05-11T05:00:29.125Z,20.10
2019-05-11T05:02:57.683Z,20.43
2019-05-11T05:05:26.185Z,24.93
2019-05-11T05:08:08.666Z,13.43
2019-05-11T05:10:25.057Z,7.93
2019-05-11T05:13:09.342Z,10.50
2019-05-11T05:15:24.282Z,15.10
2019-05-11T05:17:52.835Z,12.07
2019-05-11T05:20:21.317Z,12.90
2019-05-11T05:22:49.789Z,20.27
2019-05-11T05:25:18.304Z,9.03
2019-05-11T05:27:46.788Z,12.10
2019-05-11T05:30:15.294Z,14.63
2019-05-11T05:32:43.821Z,16.73
2019-05-11T05:35:12.332Z,11.77
2019-05-11T05:37:40.820Z,15.00
2019-05-11T05:40:10.936Z,12.40
2019-05-11T05:42:39.414Z,10.40
2019-05-11T05:45:07.999Z,14.23
2019-05-11T05:47:36.485Z,21.67
2019-05-11T05:50:06.806Z,10.83
2019-05-11T05:52:35.270Z,17.23
2019-05-11T05:55:04.825Z,19.37
2019-05-11T05:57:33.324Z,16.60
2019-05-11T06:00:01.804Z,21.60
2019-05-11T06:02:30.315Z,10.77
2019-05-11T06:04:58.802Z,11.43
2019-05-11T06:07:27.296Z,11.33
2019-05-11T06:09:55.837Z,11.80
2019-05-11T06:12:24.303Z,10.40
2019-05-11T06:14:53.121Z,14.20
2019-05-11T06:17:21.654Z,13.63
2019-05-11T06:19:50.138Z,9.10
2019-05-11T06:22:18.611Z,19.80
2019-05-11T06:24:47.143Z,23.10
2019-05-11T06:27:15.623Z,18.37
2019-05-11T06:29:44.125Z,17.23
2019-05-11T06:32:12.636Z,11.70
2019-05-11T06:34:41.101Z,9.30
2019-05-11T06:37:09.830Z,11.70
2019-05-11T06:39:38.366Z,17.00
2019-05-11T06:42:06.870Z,11.07
2019-05-11T06:44:35.352Z,20.63
2019-05-11T06:47:04.051Z,13.07
2019-05-11T06:49:32.521Z,12.13
2019-05-11T06:52:01.011Z,20.17
2019-05-11T06:54:29.535Z,9.27
2019-05-11T06:56:58.286Z,11.30
2019-05-11T06:59:26.779Z,17.40
2019-05-11T07:01:55.286Z,12.80
2019-05-11T07:04:23.774Z,11.97
2019-05-11T07:06:52.271Z,19.67
2019-05-11T07:09:20.821Z,11.00
2019-05-11T07:11:49.402Z,15.20
2019-05-11T07:14:21.006Z,9.50
2019-05-11T07:16:48.694Z,10.67
2019-05-11T07:19:17.179Z,16.73
2019-05-11T07:21:48.886Z,17.17
2019-05-11T07:24:17.462Z,19.23
2019-05-11T07:26:46.103Z,15.33
2019-05-11T07:29:14.616Z,9.90
2019-05-11T07:31:43.159Z,19.10
2019-05-11T07:34:11.716Z,13.17
2019-05-11T07:36:40.208Z,17.23
2019-05-11T07:39:08.725Z,9.90
2019-05-11T07:41:38.722Z,11.20
2019-05-11T07:44:09.816Z,18.73
2019-05-11T07:46:37.851Z,11.77
2019-05-11T07:49:08.556Z,15.63
2019-05-11T07:51:38.741Z,17.20
2019-05-11T07:54:08.466Z,10.70
2019-05-11T07:56:39.024Z,9.07
2019-05-11T07:59:08.047Z,20.93
2019-05-11T08:01:38.644Z,23.57
2019-05-11T08:04:07.784Z,16.67
2019-05-11T08:06:38.921Z,13.53
2019-05-11T08:09:08.310Z,11.97
2019-05-11T08:11:38.857Z,14.73
2019-05-11T08:14:07.875Z,16.17
2019-05-11T08:16:38.716Z,12.23
2019-05-11T08:19:10.321Z,21.23
2019-05-11T08:21:38.901Z,15.37
2019-05-11T08:24:09.109Z,9.30
2019-05-11T08:26:38.659Z,13.83
2019-05-11T08:29:08.067Z,19.30
2019-05-11T08:31:38.436Z,22.10
2019-05-11T08:34:08.901Z,9.60
2019-05-11T08:36:37.893Z,8.30
2019-05-11T08:39:08.089Z,17.50
2019-05-11T08:41:38.468Z,14.33
2019-05-11T08:44:08.924Z,9.83
2019-05-11T08:46:38.639Z,17.17
2019-05-11T08:49:08.626Z,12.23
2019-05-11T08:51:38.571Z,18.30
2019-05-11T08:54:09.011Z,10.70
2019-05-11T08:56:38.407Z,7.47
2019-05-11T08:59:08.052Z,11.70
2019-05-11T09:01:39.407Z,9.53
2019-05-11T09:04:08.884Z,7.97
2019-05-11T09:06:37.826Z,9.17
2019-05-11T09:09:08.865Z,16.10
2019-05-11T09:11:38.960Z,14.37
2019-05-11T09:14:08.379Z,12.43
2019-05-11T09:16:38.372Z,14.23
2019-05-11T09:19:08.760Z,5.97
2019-05-11T09:21:38.293Z,9.70
2019-05-11T09:24:08.491Z,10.90
2019-05-11T09:26:38.940Z,12.80
2019-05-11T09:29:08.676Z,5.70
2019-05-11T09:31:39.121Z,9.07
2019-05-11T09:34:08.952Z,5.33
2019-05-11T09:36:38.857Z,7.77
2019-05-11T09:39:08.669Z,8.93
2019-05-11T09:41:38.350Z,21.43
2019-05-11T09:44:09.007Z,15.07
2019-05-11T09:46:38.445Z,6.77
2019-05-11T09:49:08.038Z,5.80
2019-05-11T09:51:37.966Z,24.53
2019-05-11T09:54:07.874Z,9.77
2019-05-11T09:56:38.210Z,11.47
2019-05-11T09:59:08.759Z,10.40
2019-05-11T10:01:37.892Z,10.10
2019-05-11T10:04:09.060Z,6.20
2019-05-11T10:06:39.073Z,6.83
2019-05-11T10:09:10.822Z,5.90
2019-05-11T10:11:40.015Z,14.13
2019-05-11T10:14:10.172Z,6.87
2019-05-11T10:16:38.858Z,8.33
2019-05-11T10:19:08.521Z,13.53
2019-05-11T10:21:38.485Z,7.57
2019-05-11T10:24:08.463Z,6.63
2019-05-11T10:26:38.682Z,7.30
2019-05-11T10:29:08.999Z,13.67
2019-05-11T10:31:38.710Z,5.17
2019-05-11T10:34:10.753Z,16.53
2019-05-11T10:36:41.074Z,15.43
2019-05-11T10:39:12.818Z,3.70
2019-05-11T10:41:41.305Z,3.57
2019-05-11T10:44:18.906Z,10.03
2019-05-11T10:46:48.371Z,10.30
2019-05-11T10:49:18.826Z,7.17
2019-05-11T10:52:09.660Z,5.93
2019-05-11T10:54:42.470Z,8.90
2019-05-11T10:57:12.609Z,7.93
2019-05-11T10:59:42.878Z,8.43
2019-05-11T11:02:13.911Z,14.50
2019-05-11T11:04:42.711Z,7.50
2019-05-11T11:07:11.207Z,9.13
2019-05-11T11:09:41.463Z,11.43
2019-05-11T11:12:13.583Z,11.67
2019-05-11T11:14:48.163Z,5.00
2019-05-11T11:17:19.836Z,8.83
2019-05-11T11:19:53.010Z,11.23
2019-05-11T11:22:35.843Z,5.23
2019-05-11T11:24:54.064Z,9.63
2019-05-11T11:27:23.207Z,7.30
2019-05-11T11:29:54.400Z,13.57
2019-05-11T11:32:22.926Z,12.60
2019-05-11T11:34:54.798Z,10.63
2019-05-11T11:37:28.088Z,13.13
2019-05-11T11:39:58.126Z,9.60
2019-05-11T11:42:28.575Z,7.23
2019-05-11T11:45:02.118Z,9.83
2019-05-11T11:47:30.991Z,3.70
2019-05-11T11:50:00.617Z,10.13
2019-05-11T11:52:30.645Z,9.30
2019-05-11T11:55:02.385Z,8.00
2019-05-11T11:57:32.371Z,7.67
2019-05-11T12:00:04.236Z,8.03
2019-05-11T12:02:34.290Z,8.17
2019-05-11T12:05:02.791Z,7.30
2019-05-11T12:07:31.284Z,11.00
2019-05-11T12:10:07.902Z,2.17
2019-05-11T12:12:38.859Z,3.93
2019-05-11T12:15:09.047Z,5.20
2019-05-11T12:17:38.231Z,7.67
2019-05-11T12:20:09.284Z,6.57
2019-05-11T12:22:38.750Z,7.33
2019-05-11T12:25:08.075Z,8.23
2019-05-11T12:27:38.288Z,6.53
2019-05-11T12:30:11.106Z,7.27
2019-05-11T12:32:48.525Z,8.00
2019-05-11T12:35:17.859Z,5.73
2019-05-11T12:37:48.630Z,5.97
2019-05-11T12:40:19.062Z,4.07
2019-05-11T12:42:48.888Z,10.43
2019-05-11T12:45:18.675Z,9.67
2019-05-11T12:47:49.181Z,12.70
2019-05-11T12:50:19.396Z,8.20
2019-05-11T12:52:47.934Z,9.43
2019-05-11T12:55:18.174Z,11.87
2019-05-11T12:57:48.341Z,10.33
2019-05-11T13:00:19.338Z,8.97
2019-05-11T13:02:49.118Z,9.73
2019-05-11T13:05:19.180Z,7.57
2019-05-11T13:07:48.513Z,7.27
2019-05-11T13:10:17.819Z,8.70
2019-05-11T13:12:50.409Z,7.73
2019-05-11T13:15:18.981Z,5.80
2019-05-11T13:17:49.214Z,12.77
2019-05-11T13:20:18.201Z,5.30
2019-05-11T13:22:48.891Z,11.10
2019-05-11T13:25:17.720Z,6.40
2019-05-11T13:27:48.951Z,10.70
2019-05-11T13:30:18.396Z,7.10
2019-05-11T13:32:49.361Z,11.83
2019-05-11T13:35:18.796Z,11.73
2019-05-11T13:37:48.089Z,7.80
2019-05-11T13:40:18.446Z,6.87
2019-05-11T13:42:49.309Z,7.00
2019-05-11T13:45:17.998Z,5.20
2019-05-11T13:47:54.478Z,6.95
2019-05-11T13:50:20.016Z,5.30
2019-05-11T13:52:48.501Z,12.23
2019-05-11T13:55:18.172Z,5.90
2019-05-11T13:57:48.643Z,7.57
2019-05-11T14:00:17.816Z,13.83
2019-05-11T14:02:48.528Z,8.93
2019-05-11T14:05:19.877Z,6.33
2019-05-11T14:07:49.986Z,3.23
2019-05-11T14:10:18.541Z,5.87
2019-05-11T14:12:50.052Z,14.30
2019-05-11T14:15:19.042Z,6.47
2019-05-11T14:17:48.581Z,6.13
2019-05-11T14:20:21.036Z,12.17
2019-05-11T14:22:49.535Z,14.07
2019-05-11T14:25:18.827Z,7.83
2019-05-11T14:27:48.014Z,6.57
2019-05-11T14:30:18.803Z,6.57
2019-05-11T14:32:47.785Z,5.80
2019-05-11T14:35:18.803Z,12.87
2019-05-11T14:37:48.651Z,9.63
2019-05-11T14:40:17.908Z,8.97
2019-05-11T14:42:49.311Z,13.50
2019-05-11T14:45:18.697Z,6.90
2019-05-11T14:47:47.869Z,13.37
2019-05-11T14:50:18.589Z,10.40
2019-05-11T14:52:48.831Z,14.37
2019-05-11T14:55:18.437Z,9.27
2019-05-11T14:57:48.593Z,6.63
2019-05-11T15:00:18.648Z,7.27
2019-05-11T15:02:49.641Z,6.40
2019-05-11T15:05:20.420Z,8.90
2019-05-11T15:07:52.030Z,7.33
2019-05-11T15:10:19.459Z,8.07
2019-05-11T15:12:48.877Z,8.20
2019-05-11T15:15:18.634Z,3.83
2019-05-11T15:17:49.220Z,10.53
2019-05-11T15:20:17.976Z,7.33
2019-05-11T15:22:48.679Z,8.90
2019-05-11T15:25:19.343Z,7.23
2019-05-11T15:27:48.719Z,7.93
2019-05-11T15:30:18.323Z,10.53
2019-05-11T15:32:48.118Z,7.33
2019-05-11T15:35:18.503Z,7.50
2019-05-11T15:37:48.343Z,7.87
2019-05-11T15:40:21.640Z,11.77
2019-05-11T15:42:50.125Z,4.70
2019-05-11T15:45:19.253Z,5.53
2019-05-11T15:47:48.697Z,6.33
2019-05-11T15:50:19.017Z,7.03
2019-05-11T15:52:48.729Z,5.50
2019-05-11T15:55:19.022Z,15.10
2019-05-11T15:57:48.440Z,11.07
2019-05-11T16:00:17.590Z,9.70
2019-05-11T16:02:48.682Z,9.47
2019-05-11T16:05:18.267Z,9.03
2019-05-11T16:07:48.978Z,7.33
2019-05-11T16:10:19.462Z,12.10
2019-05-11T16:12:48.797Z,10.30
2019-05-11T16:15:19.416Z,12.67
2019-05-11T16:17:48.737Z,8.53
2019-05-11T16:20:18.045Z,9.03
2019-05-11T16:22:47.964Z,9.60
2019-05-11T16:25:19.248Z,3.50
2019-05-11T16:27:47.149Z,3.97
2019-05-11T16:30:18.378Z,4.30
2019-05-11T16:32:48.038Z,4.33
2019-05-11T16:35:18.004Z,4.53
2019-05-11T16:37:48.612Z,5.30
2019-05-11T16:40:20.162Z,4.13
2019-05-11T16:42:47.885Z,5.33
2019-05-11T16:45:18.958Z,3.80
2019-05-11T16:47:48.315Z,7.13
2019-05-11T16:50:18.059Z,9.07
2019-05-11T16:52:48.142Z,2.77
2019-05-11T16:55:18.419Z,2.10
2019-05-11T16:57:48.554Z,8.43
2019-05-11T17:00:17.752Z,4.37
2019-05-11T17:02:48.699Z,5.37
2019-05-11T17:05:25.814Z,6.00
2019-05-11T17:07:48.304Z,3.40
2019-05-11T17:10:18.167Z,5.10
2019-05-11T17:12:48.267Z,8.00
2019-05-11T17:15:18.499Z,3.40
2019-05-11T17:17:48.620Z,5.03
2019-05-11T17:20:19.389Z,4.23
2019-05-11T17:22:48.563Z,6.83
2019-05-11T17:25:19.322Z,5.10
2019-05-11T17:27:48.574Z,6.47
2019-05-11T17:30:19.205Z,8.43
2019-05-11T17:32:49.165Z,14.67
2019-05-11T17:35:18.243Z,6.67
2019-05-11T17:37:48.507Z,3.83
2019-05-11T17:40:22.295Z,7.63
2019-05-11T17:42:53.531Z,10.70
2019-05-11T17:45:20.749Z,5.13
2019-05-11T17:47:51.702Z,9.10
2019-05-11T17:50:20.498Z,7.40
2019-05-11T17:52:50.291Z,9.13
2019-05-11T17:55:19.451Z,4.40
2019-05-11T17:57:49.684Z,13.53
2019-05-11T18:00:23.434Z,9.73
2019-05-11T18:02:52.072Z,5.40
2019-05-11T18:05:20.814Z,5.40
2019-05-11T18:07:49.794Z,8.00
2019-05-11T18:10:19.267Z,5.83
2019-05-11T18:12:48.652Z,9.63
2019-05-11T18:15:18.643Z,6.40
2019-05-11T18:17:48.397Z,3.57
2019-05-11T18:20:22.298Z,6.40
2019-05-11T18:22:51.162Z,5.67
2019-05-11T18:25:22.466Z,7.97
2019-05-11T18:27:54.256Z,14.27
2019-05-11T18:30:22.851Z,6.17
2019-05-11T18:32:51.559Z,10.97
2019-05-11T18:35:20.035Z,9.20
2019-05-11T18:37:48.539Z,3.10
2019-05-11T18:40:18.694Z,10.33
2019-05-11T18:42:48.830Z,8.90
2019-05-11T18:45:19.384Z,3.70
2019-05-11T18:47:49.102Z,18.23
2019-05-11T18:50:29.352Z,9.27
2019-05-11T18:52:48.983Z,4.70
2019-05-11T18:55:19.003Z,8.70
2019-05-11T18:57:49.039Z,11.40
2019-05-11T19:00:18.939Z,11.60
2019-05-11T19:02:49.325Z,7.63
2019-05-11T19:05:18.172Z,5.67
2019-05-11T19:07:48.136Z,6.23
2019-05-11T19:10:16.943Z,8.90
2019-05-11T19:12:45.424Z,10.53
2019-05-11T19:15:14.187Z,11.10
2019-05-11T19:17:42.704Z,8.27
2019-05-11T19:20:11.252Z,10.07
2019-05-11T19:22:39.775Z,9.70
2019-05-11T19:25:08.993Z,6.90
2019-05-11T19:27:37.859Z,17.03
2019-05-11T19:30:09.432Z,18.57
2019-05-11T19:32:38.493Z,19.70
2019-05-11T19:35:08.972Z,16.53
2019-05-11T19:37:38.884Z,13.17
2019-05-11T19:40:09.226Z,8.70
2019-05-11T19:42:59.065Z,8.50
2019-05-11T19:45:29.320Z,8.43
2019-05-11T19:47:57.916Z,21.90
2019-05-11T19:50:26.443Z,8.27
2019-05-11T19:52:54.915Z,9.83
2019-05-11T19:55:23.473Z,13.07
2019-05-11T19:57:52.272Z,9.37
2019-05-11T20:00:22.868Z,11.17
2019-05-11T20:02:51.425Z,12.53
2019-05-11T20:05:19.981Z,12.13
2019-05-11T20:07:49.005Z,4.53
2019-05-11T20:10:18.913Z,7.77
2019-05-11T20:12:48.514Z,16.17
2019-05-11T20:15:18.885Z,11.37
2019-05-11T20:17:48.601Z,4.63
2019-05-11T20:20:18.610Z,8.33
2019-05-11T20:22:48.284Z,11.20
2019-05-11T20:25:18.592Z,15.27
2019-05-11T20:27:48.375Z,14.93
2019-05-11T20:30:18.600Z,5.13
2019-05-11T20:32:48.500Z,10.80
2019-05-11T20:35:17.621Z,11.00
2019-05-11T20:37:46.106Z,4.80
2019-05-11T20:40:14.660Z,10.03
2019-05-11T20:42:43.158Z,7.70
2019-05-11T20:45:11.731Z,9.50
2019-05-11T20:47:40.203Z,9.90
2019-05-11T20:50:08.913Z,11.70
2019-05-11T20:52:38.970Z,14.03
2019-05-11T20:55:08.788Z,12.50
2019-05-11T20:57:39.191Z,8.33
2019-05-11T21:00:09.813Z,3.17
2019-05-11T21:02:38.441Z,7.00
2019-05-11T21:05:09.081Z,11.20
2019-05-11T21:07:38.880Z,7.70
2019-05-11T21:10:08.578Z,7.47
2019-05-11T21:12:38.576Z,5.10
2019-05-11T21:15:08.620Z,9.23
2019-05-11T21:17:37.084Z,3.67
2019-05-11T21:20:07.641Z,14.70
2019-05-11T21:22:40.003Z,8.47
2019-05-11T21:25:09.053Z,7.70
2019-05-11T21:27:38.599Z,8.90
2019-05-11T21:30:11.805Z,4.27
2019-05-11T21:32:41.049Z,13.97
2019-05-11T21:35:09.972Z,11.20
2019-05-11T21:37:39.162Z,19.67
2019-05-11T21:40:09.105Z,6.27
2019-05-11T21:42:38.990Z,12.50
2019-05-11T21:45:09.458Z,11.47
2019-05-11T21:47:38.894Z,10.93
2019-05-11T21:50:08.999Z,12.67
2019-05-11T21:52:38.513Z,14.30
2019-05-11T21:55:09.459Z,13.63
2019-05-11T21:57:38.366Z,12.97
2019-05-11T22:00:08.960Z,4.83
2019-05-11T22:02:38.420Z,9.03
2019-05-11T22:05:08.299Z,9.93
2019-05-11T22:07:38.830Z,6.70
2019-05-11T22:10:10.076Z,7.70
2019-05-11T22:12:39.363Z,9.63
2019-05-11T22:15:09.539Z,7.93
2019-05-11T22:17:39.298Z,8.60
2019-05-11T22:20:08.799Z,7.73
2019-05-11T22:22:38.962Z,7.63
2019-05-11T22:25:11.562Z,12.87
2019-05-11T22:27:40.096Z,8.23
2019-05-11T22:30:09.120Z,15.30
2019-05-11T22:32:38.652Z,10.47
2019-05-11T22:35:08.583Z,6.70
2019-05-11T22:37:38.508Z,19.43
2019-05-11T22:40:08.673Z,8.50
2019-05-11T22:42:37.716Z,5.97
2019-05-11T22:45:09.654Z,9.20
2019-05-11T22:47:39.420Z,10.73
2019-05-11T22:50:09.090Z,10.10
2019-05-11T22:52:40.498Z,12.03
2019-05-11T22:55:11.657Z,14.07
2019-05-11T22:57:38.956Z,12.90
2019-05-11T23:00:09.268Z,7.97
2019-05-11T23:02:38.190Z,13.30
2019-05-11T23:05:09.000Z,9.30
2019-05-11T23:07:41.216Z,9.13
2019-05-11T23:10:09.915Z,9.50
2019-05-11T23:12:38.842Z,15.23
2019-05-11T23:15:15.061Z,9.63
2019-05-11T23:17:43.664Z,15.87
2019-05-11T23:20:12.590Z,16.93
2019-05-11T23:22:57.571Z,9.63
2019-05-11T23:25:19.932Z,11.67
2019-05-11T23:27:48.972Z,12.23
2019-05-11T23:30:19.701Z,19.53
2019-05-11T23:32:49.943Z,6.97
2019-05-11T23:35:18.963Z,11.00
2019-05-11T23:37:49.414Z,16.23
2019-05-11T23:40:18.406Z,9.90
2019-05-11T23:42:48.937Z,11.63
2019-05-11T23:45:18.836Z,10.57
2019-05-11T23:47:48.862Z,9.47
2019-05-11T23:50:19.146Z,12.80
2019-05-11T23:52:53.231Z,7.33
2019-05-11T23:55:19.366Z,8.40
2019-05-11T23:57:49.707Z,13.07
